Abbotsford International Airport

CYXX · Colombie-Britannique, Canada

METAR anciennes CYXX · Abbotsford Airport

Tu vois ci-dessous les METAR des derniers jours. Sélectionne une année pour parcourir les METAR plus anciens, à partir de l'année 2007.

22 mai 2024

Temps Code Temps Temp. Vue Base cloud Vent METAR/SPECI
19:00
V
16 °C 25 mi - 150° 150° 4 kt METAR CYXX 230200Z 15004KT 140V200 25SM FEW037 FEW085 SCT220 16/08 A2999 RMK CU1AC2CI1 CU TR SLP158
18:00
V
16 °C 25 mi 8.000 ft 210° 210° 3 kt METAR CYXX 230100Z 21003KT 130V220 25SM FEW037 BKN080 BKN200 16/07 A2997 RMK CU1AC5CI1 CU TR SLP153 DENSITY ALT 400FT
17:00
V
16 °C 25 mi 24.000 ft 360° 360° 0 kt METAR CYXX 230000Z 00000KT 25SM FEW037 FEW074 SCT190 BKN240 16/08 A2997 RMK CU1AC1AC2CI2 AC TR SLP151
16:00
V
16 °C 25 mi 24.000 ft 360° 360° 0 kt METAR CYXX 222300Z 00000KT 25SM FEW035 FEW100 SCT210 BKN240 16/07 A2997 RMK CU2AC1CI1CI2 AC TR SLP150
15:00
V
14 °C 25 mi 24.000 ft Var Var 2 kt METAR CYXX 222200Z VRB02KT 25SM SCT032 SCT200 BKN240 14/06 A2996 RMK CU4CC1CI2 CC TR CONTRAILS SLP150
14:00
V
13 °C 25 mi 3.700 ft 360° 360° 0 kt METAR CYXX 222100Z 00000KT 25SM SCT028 BKN037 BKN100 BKN200 13/07 A2996 RMK CU3SC2AC1CI1 SLP148
13:00
V
12 °C 25 mi 3.400 ft 240° 240° 7 kt METAR CYXX 222000Z 24007KT 25SM SCT027 BKN034 BKN045 BKN090 12/06 A2994 RMK CU3SC2SC1AC1 SLP143
12:00
V
12 °C 25 mi 4.300 ft Var Var 2 kt METAR CYXX 221900Z VRB02KT 25SM SCT027 BKN043 BKN090 12/05 A2993 RMK CU3SC3AC1 SLP139
11:23
M
12 °C 20 mi 2.600 ft 290° 290° 4 kt METAR CYXX 221823Z 29004KT 170V330 20SM SCT023 BKN026 BKN036 BKN090 12/06 A2992 RMK CU3CU2SC1AC1 SLP136
11:00
M
11 °C 20 mi 2.800 ft 170° 170° 4 kt METAR CYXX 221800Z 17004KT 090V200 20SM -SHRA SCT020 BKN028 BKN090 BKN200 11/06 A2992 RMK CU3CU2AC1CI1 SLP134
10:33
M
11 °C 20 mi 2.400 ft 190° 190° 5 kt METAR CYXX 221733Z 19005KT 140V240 20SM FEW015 BKN024TCU BKN038 BKN220 11/06 A2991 RMK CU1TCU4SC1CI2 SC TR SLP132
10:00
V
11 °C 20 mi 22.000 ft 190° 190° 3 kt METAR CYXX 221700Z 19003KT 150V240 20SM FEW012 FEW020TCU SCT084 BKN220 11/07 A2990 RMK CF1TCU2AC1CI3 CF TR SLP129
09:33
V
10 °C 20 mi 4.400 ft 210° 210° 4 kt METAR CYXX 221633Z 21004KT 160V260 20SM FEW008 SCT020 BKN044 BKN086 10/06 A2990 RMK CU1CU2SC2AC2 SLP128
09:00
M
9 °C 20 mi 2.700 ft 190° 190° 5 kt METAR CYXX 221600Z 19005KT 20SM SCT008 BKN027 BKN040 BKN085 09/06 A2989 RMK CU3SC2SC1AC1 PIREP CIG 800 FT 2 SM E OF AD SLP125
08:38
V
9 °C 20 mi 3.100 ft 210° 210° 5 kt METAR CYXX 221538Z 21005KT 190V260 20SM SCT008 BKN031 BKN039 BKN150 09/06 A2988 RMK CU3SC2SC2AC1 AC TR SLP122
08:00
V
9 °C 20 mi 3.100 ft Var Var 2 kt METAR CYXX 221500Z VRB02KT 20SM FEW007 BKN031 BKN046 BKN150 09/06 A2988 RMK CU1SC5SC2AC1 CU TR AC TR PRESRR SLP122
07:49
V
8 °C 20 mi 3.200 ft 260° 260° 3 kt METAR CYXX 221449Z 26003KT 20SM FEW007 BKN032 BKN046 BKN150 08/06 A2987 RMK CU1SC5SC2AC1 CU TR AC TR SLP118
07:00
V
8 °C 30 mi 3.400 ft 360° 360° 0 kt METAR CYXX 221400Z 00000KT 30SM BKN034 08/06 A2985 RMK SC7 SLP113
06:00
M
8 °C 30 mi 3.000 ft 200° 200° 3 kt METAR CYXX 221300Z 20003KT 30SM -RA BKN030 08/06 A2984 RMK SC7 SLP107
05:00
V
8 °C 15 mi 4.300 ft 360° 360° 0 kt METAR CYXX 221200Z 00000KT 15SM OVC043 08/06 A2982 RMK SC8 SLP100
04:00
V
8 °C 15 mi 4.200 ft 170° 170° 5 kt METAR CYXX 221100Z 17005KT 15SM OVC042 08/06 A2982 RMK SC8 SLP099
03:00
V
8 °C 15 mi 4.100 ft 160° 160° 7 kt METAR CYXX 221000Z 16007KT 15SM BKN041 BKN100 08/06 A2980 RMK SC6AC1 SLP093
02:00
V
7 °C 10 mi 3.800 ft 150° 150° 7 kt METAR CYXX 220900Z 15007KT 10SM BKN038 07/06 A2980 RMK SC7 SLP093
01:00
V
7 °C 10 mi 6.200 ft 170° 170° 7 kt METAR CYXX 220800Z 17007KT 10SM BKN062 BKN082 07/06 A2981 RMK SC5AC1 SLP098
00:52
V
7 °C 10 mi 6.000 ft 170° 170° 5 kt METAR CYXX 220752Z 17005KT 10SM BKN060 OVC083 07/06 A2981 RMK SC6AC2 SLP098
00:00
V
8 °C 10 mi 4.400 ft 190° 190° 9 kt METAR CYXX 220700Z 19009KT 10SM -RA OVC044 08/06 A2981 RMK SC8 -RA INTMT SLP099

21 mai 2024

Temps Code Temps Temp. Vue Base cloud Vent METAR/SPECI
23:26
V
9 °C 10 mi 3.600 ft 230° 230° 15 - 20 kt METAR CYXX 220626Z 23015G20KT 10SM -RA SCT020 OVC036 09/07 A2980 RMK SC3SC5 PRESRR SLP094
23:09
V
10 °C 10 mi 4.000 ft 200° 200° 20 - 26 kt METAR CYXX 220609Z 20020G26KT 10SM SCT013 OVC040 10/08 A2978 RMK SC3SC5 SLP088
22:00
V
11 °C 10 mi 5.400 ft 170° 170° 12 - 18 kt METAR CYXX 220500Z 17012G18KT 10SM SCT015 OVC054 11/10 A2977 RMK SC4SC4 SLP084
21:36
M
11 °C 3 mi 1.400 ft 170° 170° 12 - 18 kt METAR CYXX 220436Z 17012G18KT 3SM -RA BKN014 OVC065 11/10 A2978 RMK SC5SC8 INTMT -RA SLP087
21:00
I
11 °C 3 mi 5.300 ft 180° 180° 13 kt METAR CYXX 220400Z 18013KT 3SM -RA FEW019 OVC053 11/10 A2979 RMK SF1SC8 SF TR INTMT -RA SLP091
20:00
I
11 °C 2½ mi 2.200 ft 170° 170° 13 - 18 kt METAR CYXX 220300Z 17013G18KT 2 1/2SM -RA OVC022 11/10 A2982 RMK SC8 SLP100
19:00
I
11 °C 2½ mi - 170° 170° 9 kt METAR CYXX 220200Z 17009KT 2 1/2SM -RA FEW024 11/11 A2985 RMK SC8 SLP109
18:00
I
11 °C 2½ mi 3.400 ft 180° 180° 9 kt METAR CYXX 220100Z 18009KT 2 1/2SM -RA FEW008 OVC034 11/11 A2987 RMK ST1SC8 ST TR SLP117
17:00
I
11 °C 2½ mi 3.000 ft 170° 170° 11 kt METAR CYXX 220000Z 17011KT 2 1/2SM -RA FEW010 OVC030 11/10 A2990 RMK SF1SC8 SF TR SLP126
16:32
V
12 °C 6 mi 3.700 ft 190° 190° 13 kt METAR CYXX 212332Z 19013KT 6SM -RA FEW010 OVC037 12/10 A2991 RMK SF1SC7 VIS LWR N NE SLP130
16:00
V
12 °C 10 mi 4.700 ft 190° 190° 13 kt METAR CYXX 212300Z 19013KT 10SM FEW010 SCT037 OVC047 12/11 A2991 RMK SF1SC4SC4 SF TR VIS LWR N SLP132
15:00
M
12 °C 3 mi 2.500 ft 170° 170° 6 kt METAR CYXX 212200Z 17006KT 3SM -RA FEW009 SCT018 BKN025 OVC031 12/11 A2994 RMK CF1SC2SC3SC2 VIS VRB 1.5- 3 N NE SLP140
14:12
M
11 °C 3 mi 2.700 ft 210° 210° 8 kt METAR CYXX 212112Z 21008KT 3SM RA SCT009 OVC027 11/11 A2996 RMK NS4SC4 VIS VRB 1.5-3 N NE SLP149
14:00
M
11 °C 3 mi 3.700 ft 210° 210° 7 kt METAR CYXX 212100Z 21007KT 3SM -RA FEW009 BKN037 OVC044 11/10 A2996 RMK SF3SC3SC2 VIS VRB 2-3 N NE SLP150
13:21
M
11 °C 3 mi 3.800 ft 210° 210° 7 kt METAR CYXX 212021Z 21007KT 3SM -RA FEW014 SCT027 OVC038 11/10 A2998 RMK SF1SC3SC4 VIS VRB 2-3 N NE SLP154
13:00
M
11 °C 4 mi 3.700 ft 210° 210° 9 kt METAR CYXX 212000Z 21009KT 4SM -RA FEW009 SCT024 OVC037 11/10 A2998 RMK SF1SC4SC4 SF TR SLP157
12:00
M
10 °C 3 mi 4.300 ft 200° 200° 7 kt METAR CYXX 211900Z 20007KT 3SM -RA SCT006 BKN043 OVC052 10/10 A2999 RMK SF4SC3SC1 SLP160
11:00
M
10 °C 3 mi 4.500 ft 230° 230° 11 kt METAR CYXX 211800Z 23011KT 3SM -RA SCT008 SCT037 OVC045 10/09 A3001 RMK SF4SC2SC2 SLP166
10:00
M
10 °C 3 mi 4.200 ft 200° 200° 9 kt METAR CYXX 211700Z 20009KT 3SM -RA BKN042 BKN051 10/09 A3002 RMK SC6NS2 SLP170
09:21
M
10 °C 3 mi - 200° 200° 11 kt METAR CYXX 211621Z 20011KT 3SM RA SCT031 SCT043 10/09 A3003 RMK SC3NS5 SLP173
09:00
M
10 °C 4 mi 3.100 ft 190° 190° 12 - 17 kt METAR CYXX 211600Z 19012G17KT 4SM -RA OVC031 10/08 A3004 RMK SC8 SLP175
08:00
M
10 °C 4 mi 2.800 ft 200° 200° 8 kt METAR CYXX 211500Z 20008KT 4SM -RA FEW012 OVC028 10/09 A3006 RMK SF1SC8 SF TR SLP181
07:00
M
10 °C 6 mi 2.400 ft 200° 200° 6 kt METAR CYXX 211400Z 20006KT 6SM -RA OVC024 10/09 A3007 RMK SC8 SLP186
06:00
M
10 °C 10 mi 1.700 ft 180° 180° 5 kt METAR CYXX 211300Z 18005KT 10SM -RA OVC017 10/09 A3009 RMK SC8 -RA INTMT SLP192
05:31
M
10 °C 10 mi 1.800 ft 170° 170° 5 kt METAR CYXX 211231Z 17005KT 10SM -RA OVC018 10/09 A3010 RMK SC8 -RA INTMT SLP195
05:00
M
10 °C 10 mi 1.700 ft 150° 150° 7 kt METAR CYXX 211200Z 15007KT 10SM BKN017 OVC038 10/08 A3011 RMK SC6SC2 SLP198
04:00
V
10 °C 6 mi 7.000 ft 180° 180° 6 kt METAR CYXX 211100Z 18006KT 160V250 6SM -RA SCT060 OVC070 10/08 A3012 RMK SC4AC4 SLP201
03:09
V
11 °C 15 mi 6.500 ft 220° 220° 7 kt METAR CYXX 211009Z 22007KT 15SM -RA OVC065 11/06 A3012 RMK SC8 SLP201
03:00
V
11 °C 15 mi 6.000 ft 230° 230° 9 kt METAR CYXX 211000Z 23009KT 15SM OVC060 11/06 A3011 RMK SC8 SLP200
02:00
V
11 °C 15 mi 7.200 ft 240° 240° 9 kt METAR CYXX 210900Z 24009KT 15SM FEW054 OVC072 11/06 A3013 RMK SC2AC6 SLP205
01:00
V
11 °C 15 mi 9.300 ft 240° 240° 5 kt METAR CYXX 210800Z 24005KT 15SM SCT063 OVC093 11/06 A3014 RMK SC4AC4 SLP209
00:00
V
12 °C 15 mi 8.600 ft 210° 210° 7 kt METAR CYXX 210700Z 21007KT 15SM SCT065 BKN086 12/05 A3015 RMK SC4AC3 SLP212

20 mai 2024

Temps Code Temps Temp. Vue Base cloud Vent METAR/SPECI
23:00
V
12 °C 15 mi 8.600 ft 220° 220° 8 kt METAR CYXX 210600Z 22008KT 15SM SCT062 BKN086 12/05 A3016 RMK SC3AC4 SLP215
22:00
V
11 °C 15 mi 19.000 ft 220° 220° 6 kt METAR CYXX 210500Z 22006KT 15SM FEW076 BKN190 11/06 A3016 RMK AC2AS4 SLP217
21:00
V
12 °C 30 mi 30.000 ft 220° 220° 4 kt METAR CYXX 210400Z 22004KT 30SM FEW080 BKN300 12/06 A3016 RMK AC1CS6 SLP217
20:00
V
14 °C 30 mi 30.000 ft 210° 210° 8 kt METAR CYXX 210300Z 21008KT 30SM FEW050 FEW070 FEW250 SCT280 BKN300 14/06 A3017 RMK CU1AC1CC1CI2CS4 CU TR CC TR SLP219
19:00
V
15 °C 25 mi 19.000 ft 200° 200° 11 kt METAR CYXX 210200Z 20011KT 25SM FEW040TCU FEW050 BKN190 BKN270 15/06 A3017 RMK TCU1CU1AC2CS5 TCU TR CU TR SLP220
18:00
V
17 °C 25 mi 25.000 ft 230° 230° 12 kt METAR CYXX 210100Z 23012KT 25SM FEW040TCU FEW045 BKN250 17/07 A3017 RMK TCU1CU1CS5 TCU TR SLP221
17:00
V
18 °C 25 mi 25.000 ft 220° 220° 9 kt METAR CYXX 210000Z 22009KT 190V260 25SM FEW040TCU FEW042 BKN250 18/06 A3018 RMK TCU1CU2CS5 TCU TR SLP223
16:00
V
18 °C 25 mi - 240° 240° 7 kt METAR CYXX 202300Z 24007KT 170V270 25SM FEW045TCU SCT051 SCT190 18/07 A3020 RMK TCU1CU2AS1 AS TR SLP229
15:00
V
17 °C 25 mi - 230° 230° 9 kt METAR CYXX 202200Z 23009KT 220V300 25SM FEW041TCU SCT045 17/06 A3022 RMK TCU1CU3 SLP235
14:00
V
16 °C 25 mi - 240° 240° 6 kt METAR CYXX 202100Z 24006KT 210V270 25SM FEW040TCU SCT042 16/08 A3023 RMK TCU1CU3 SLP240
13:00
V
16 °C 25 mi - 230° 230° 6 kt METAR CYXX 202000Z 23006KT 170V260 25SM FEW029TCU SCT051 SCT190 16/10 A3024 RMK TCU1CU2AS1 SLP244
12:00
V
15 °C 25 mi 3.300 ft 220° 220° 9 kt METAR CYXX 201900Z 22009KT 200V280 25SM SCT026 BKN033 BKN052TCU BKN190 15/10 A3025 RMK CU3SC3TCU1AC1 TCU TR SLP248
11:00
V
14 °C 25 mi 3.200 ft 230° 230° 6 kt METAR CYXX 201800Z 23006KT 180V240 25SM SCT025 BKN032 BKN250 14/08 A3026 RMK CU3SC3CC1 SLP249
10:00
V
13 °C 25 mi 6.000 ft 220° 220° 5 kt METAR CYXX 201700Z 22005KT 25SM SCT023 BKN060 BKN250 13/08 A3025 RMK SC4CU2CC1 SLP248
09:00
V
12 °C 25 mi 6.600 ft 250° 250° 3 kt METAR CYXX 201600Z 25003KT 160V270 25SM FEW022 BKN066 12/07 A3026 RMK CU1AC6 CONTRAILS SLP249
08:00
M
10 °C 25 mi 2.500 ft 360° 360° 0 kt METAR CYXX 201500Z CCA 00000KT 25SM BKN025 BKN052 10/07 A3026 RMK SC5SC2 CONTRAILS SLP249
07:00
V
9 °C 30 mi 30.000 ft 360° 360° 0 kt METAR CYXX 201400Z CCA 00000KT 30SM FEW030 SCT060 SCT280 BKN300 09/06 A3025 RMK CU2SC2CC1CS2 CC TR CONTRAILS SLP247
06:00
V
7 °C 30 mi - 360° 360° 0 kt METAR CYXX 201300Z 00000KT 30SM FEW060 07/05 A3025 RMK SC1 SLP245
05:00
V
7 °C 15 mi - 360° 360° 0 kt METAR CYXX 201200Z 00000KT 15SM FEW060 07/05 A3024 RMK SC1 SLP242
04:00
V
7 °C 15 mi - 340° 340° 2 kt METAR CYXX 201100Z 34002KT 15SM FEW060 07/06 A3023 RMK SC1 SLP241
03:00
V
8 °C 15 mi - 360° 360° 0 kt METAR CYXX 201000Z 00000KT 15SM FEW060 08/06 A3023 RMK SC1 SLP239
02:00
V
9 °C 15 mi - 280° 280° 2 kt METAR CYXX 200900Z 28002KT 15SM SCT060 09/07 A3023 RMK SC3 SLP238
01:00
V
9 °C 15 mi 6.000 ft 360° 360° 0 kt METAR CYXX 200800Z 00000KT 15SM BKN060 09/07 A3022 RMK SC7 SLP237
00:00
V
9 °C 15 mi 6.100 ft 050° 050° 2 kt METAR CYXX 200700Z 05002KT 15SM BKN061 09/07 A3023 RMK SC5 SLP239

19 mai 2024

Temps Code Temps Temp. Vue Base cloud Vent METAR/SPECI
23:00
V
10 °C 15 mi - 360° 360° 0 kt METAR CYXX 200600Z 00000KT 15SM FEW060 10/06 A3023 RMK SC1 SLP240
Signaler les modifications